Time;durP1;ratioP1;P1;durP2;ratioP2;P2;SDS_P1;SDS_P2;PMS_P1;PMS_P2;Temp;Humidity;BMP_temperature;BMP_pressure;BME280_temperature;BME280_humidity;BME280_pressure;Samples;Min_cycle;Max_cycle;Signal;HPM_P1;HPM_P2
2023/10/28 00:01:17;;;;;;;4.32;0.77;;;11.50;77.50;;;;;;4900421;29;20049;-90
2023/10/28 00:03:45;;;;;;;4.38;0.90;;;11.50;77.60;;;;;;4900157;29;20045;-90
2023/10/28 00:06:13;;;;;;;5.15;0.90;;;11.50;77.30;;;;;;4900208;29;20053;-90
2023/10/28 00:08:40;;;;;;;3.35;0.68;;;11.50;77.30;;;;;;4900355;29;20045;-90
2023/10/28 00:11:08;;;;;;;3.27;0.90;;;11.50;77.00;;;;;;4884718;29;20045;-90
2023/10/28 00:13:35;;;;;;;2.83;0.80;;;11.50;76.50;;;;;;4900579;29;20160;-91
2023/10/28 00:16:05;;;;;;;3.45;0.80;;;11.50;76.80;;;;;;4884558;29;20108;-90
2023/10/28 00:18:33;;;;;;;2.60;0.63;;;11.50;76.70;;;;;;4900275;29;20063;-90
2023/10/28 00:21:01;;;;;;;3.10;0.73;;;11.50;76.80;;;;;;4899826;29;20048;-90
2023/10/28 00:23:31;;;;;;;3.20;0.70;;;11.50;76.70;;;;;;4899958;29;20044;-90
2023/10/28 00:26:05;;;;;;;2.70;0.75;;;11.50;76.50;;;;;;4884896;29;20077;-89
2023/10/28 00:28:33;;;;;;;2.63;0.73;;;11.50;76.50;;;;;;4880494;29;20044;-90
2023/10/28 00:31:02;;;;;;;4.47;0.90;;;11.50;76.10;;;;;;4884473;29;20099;-90
2023/10/28 00:33:30;;;;;;;2.70;0.65;;;11.50;76.90;;;;;;4899784;29;20147;-89
2023/10/28 00:35:57;;;;;;;2.20;0.67;;;11.50;76.70;;;;;;4900165;29;20048;-90
2023/10/28 00:38:24;;;;;;;2.58;0.70;;;11.50;76.70;;;;;;4899837;29;20104;-90
2023/10/28 00:40:51;;;;;;;4.60;0.77;;;11.50;76.70;;;;;;4884424;29;20049;-90
2023/10/28 00:43:22;;;;;;;2.28;0.80;;;11.50;76.70;;;;;;4884332;29;20049;-90
2023/10/28 00:45:50;;;;;;;2.85;0.80;;;11.50;76.60;;;;;;4868869;29;20371;-90
2023/10/28 00:48:18;;;;;;;2.70;0.70;;;11.50;76.90;;;;;;4899481;29;20072;-90
2023/10/28 00:50:45;;;;;;;2.38;0.60;;;11.50;76.70;;;;;;4868674;29;20053;-89
2023/10/28 00:53:13;;;;;;;3.03;0.65;;;11.50;76.30;;;;;;4899377;29;20083;-90
2023/10/28 00:55:40;;;;;;;2.50;0.73;;;11.50;76.60;;;;;;4884247;29;20451;-89
2023/10/28 00:58:09;;;;;;;2.88;0.60;;;11.50;76.40;;;;;;4899461;29;20077;-90
2023/10/28 01:00:36;;;;;;;2.73;1.07;;;11.50;76.70;;;;;;4884636;29;20523;-90
2023/10/28 01:03:03;;;;;;;2.35;0.70;;;11.50;76.90;;;;;;4899310;29;20067;-89
2023/10/28 01:05:33;;;;;;;2.35;0.82;;;11.50;76.80;;;;;;4899577;29;20040;-89
2023/10/28 01:08:00;;;;;;;2.25;0.75;;;11.50;76.50;;;;;;4883899;29;20041;-90
2023/10/28 01:10:29;;;;;;;3.88;0.95;;;11.50;76.60;;;;;;4899096;29;20389;-90
2023/10/28 01:12:58;;;;;;;2.67;0.80;;;11.50;76.70;;;;;;4898660;29;20057;-90
2023/10/28 01:15:27;;;;;;;4.80;0.90;;;11.60;76.70;;;;;;4853345;29;20407;-89
2023/10/28 01:17:54;;;;;;;3.00;0.70;;;11.60;76.30;;;;;;4883715;29;20077;-89
2023/10/28 01:20:21;;;;;;;2.30;0.65;;;11.50;76.20;;;;;;4898967;29;20494;-90
2023/10/28 01:22:49;;;;;;;2.80;0.60;;;11.50;76.10;;;;;;4883643;29;20056;-89
2023/10/28 01:25:19;;;;;;;3.77;0.80;;;11.50;75.90;;;;;;4898800;29;20092;-89
2023/10/28 01:27:46;;;;;;;2.45;0.80;;;11.50;76.00;;;;;;4883479;29;20036;-88
2023/10/28 01:30:13;;;;;;;3.00;1.00;;;11.60;75.90;;;;;;4899067;29;20049;-89
2023/10/28 01:32:42;;;;;;;2.83;0.95;;;11.70;75.40;;;;;;4898817;29;20045;-90
2023/10/28 01:35:12;;;;;;;2.92;0.70;;;11.70;75.30;;;;;;4883278;29;20064;-89
2023/10/28 01:37:40;;;;;;;2.80;0.63;;;11.80;75.00;;;;;;4898565;29;20236;-90
2023/10/28 01:40:13;;;;;;;3.60;0.70;;;11.80;75.30;;;;;;4898862;29;20471;-88
2023/10/28 01:42:45;;;;;;;2.08;0.68;;;11.90;75.40;;;;;;4897811;29;20104;-90
2023/10/28 01:45:15;;;;;;;3.85;1.15;;;11.90;74.60;;;;;;4883327;29;20040;-90
2023/10/28 01:47:43;;;;;;;3.92;1.17;;;11.80;74.50;;;;;;4898635;29;20044;-90
2023/10/28 01:50:11;;;;;;;2.63;1.20;;;11.80;74.90;;;;;;4867934;29;20063;-90
2023/10/28 01:52:40;;;;;;;2.95;1.08;;;11.80;74.80;;;;;;4898860;29;20049;-90
2023/10/28 01:55:09;;;;;;;4.25;1.33;;;11.80;74.70;;;;;;4883164;29;20081;-90
2023/10/28 01:57:39;;;;;;;2.58;1.05;;;11.70;74.60;;;;;;4867903;29;20041;-90
2023/10/28 02:00:12;;;;;;;4.50;1.10;;;11.70;74.60;;;;;;4898661;29;20055;-90
2023/10/28 02:02:45;;;;;;;2.67;1.10;;;11.70;74.50;;;;;;4868057;29;20141;-90
2023/10/28 02:05:15;;;;;;;4.10;1.50;;;11.70;74.50;;;;;;4883407;29;20418;-90
2023/10/28 02:07:42;;;;;;;4.00;1.20;;;11.80;74.70;;;;;;4883190;29;20048;-89
2023/10/28 02:10:09;;;;;;;2.72;1.02;;;11.70;74.70;;;;;;4883057;29;20044;-90
2023/10/28 02:12:37;;;;;;;4.18;1.40;;;11.70;74.80;;;;;;4898556;29;20040;-91
2023/10/28 02:15:06;;;;;;;4.87;1.57;;;11.80;75.00;;;;;;4898583;29;20057;-90
2023/10/28 02:17:35;;;;;;;3.72;1.10;;;11.80;75.30;;;;;;4876941;29;20096;-90
2023/10/28 02:20:06;;;;;;;4.45;1.40;;;11.80;75.10;;;;;;4861024;29;20535;-90
2023/10/28 02:22:34;;;;;;;4.53;1.30;;;11.80;74.80;;;;;;4876763;29;20053;-91
2023/10/28 02:25:04;;;;;;;2.95;1.17;;;11.80;75.00;;;;;;4876366;29;20053;-90
2023/10/28 02:27:33;;;;;;;4.87;1.30;;;11.70;75.00;;;;;;4861060;29;20504;-90
2023/10/28 02:30:00;;;;;;;3.90;1.45;;;11.80;75.40;;;;;;4861147;29;20164;-91
2023/10/28 02:32:31;;;;;;;5.13;1.55;;;11.80;75.30;;;;;;4875953;29;20050;-90
2023/10/28 02:34:59;;;;;;;4.25;1.38;;;11.80;75.30;;;;;;4876875;29;20050;-91
2023/10/28 02:37:27;;;;;;;5.75;1.52;;;11.80;75.40;;;;;;4861332;29;20054;-89
2023/10/28 02:39:54;;;;;;;4.37;1.50;;;11.80;75.50;;;;;;4863492;29;20526;-90
2023/10/28 02:42:24;;;;;;;5.05;1.45;;;11.80;75.70;;;;;;4864657;29;20106;-90
2023/10/28 02:44:52;;;;;;;6.10;1.30;;;11.80;75.70;;;;;;4849220;29;20057;-89
2023/10/28 02:47:19;;;;;;;3.75;1.20;;;11.90;75.50;;;;;;4880085;29;20045;-90
2023/10/28 02:49:46;;;;;;;5.63;1.52;;;11.80;75.50;;;;;;4849146;29;20452;-90
2023/10/28 02:52:15;;;;;;;4.70;1.43;;;11.80;75.70;;;;;;4864565;29;20056;-90
2023/10/28 02:54:43;;;;;;;4.63;1.45;;;11.90;75.70;;;;;;4879815;29;20053;-90
2023/10/28 02:57:10;;;;;;;6.85;1.88;;;12.00;75.70;;;;;;4864451;29;20045;-90
2023/10/28 02:59:37;;;;;;;5.43;1.85;;;12.00;75.70;;;;;;4865066;29;20075;-89
2023/10/28 03:02:04;;;;;;;6.72;1.70;;;12.00;75.60;;;;;;4849054;29;20148;-90
2023/10/28 03:04:32;;;;;;;5.97;1.73;;;12.00;75.40;;;;;;4864287;29;20053;-90
2023/10/28 03:07:05;;;;;;;5.78;1.33;;;11.80;75.10;;;;;;4864128;29;20093;-90
2023/10/28 03:09:32;;;;;;;4.28;1.60;;;11.80;75.40;;;;;;4864091;29;20106;-90
2023/10/28 03:12:00;;;;;;;3.83;1.20;;;11.80;75.20;;;;;;4879412;29;20050;-91
2023/10/28 03:14:28;;;;;;;7.40;1.35;;;11.90;75.30;;;;;;4864123;29;20053;-90
2023/10/28 03:16:55;;;;;;;4.03;1.40;;;11.90;75.20;;;;;;4845468;29;20062;-90
2023/10/28 03:19:23;;;;;;;4.75;1.38;;;11.90;75.30;;;;;;4845680;29;20049;-91
2023/10/28 03:21:50;;;;;;;5.18;1.77;;;11.90;75.00;;;;;;4860721;29;20089;-90
2023/10/28 03:24:17;;;;;;;3.45;1.25;;;11.90;75.40;;;;;;4845212;29;20495;-90
2023/10/28 03:26:44;;;;;;;3.55;1.60;;;11.90;75.30;;;;;;4845498;29;20054;-91
2023/10/28 03:29:11;;;;;;;4.07;1.00;;;11.80;75.00;;;;;;4845411;29;20526;-90
2023/10/28 03:31:39;;;;;;;3.63;1.20;;;11.90;75.20;;;;;;4845459;29;20438;-90
2023/10/28 03:34:07;;;;;;;3.17;1.50;;;11.80;75.20;;;;;;4847696;29;20080;-90
2023/10/28 03:36:37;;;;;;;3.95;1.40;;;11.80;75.20;;;;;;4848587;29;20049;-90
2023/10/28 03:39:04;;;;;;;3.75;1.17;;;11.80;75.20;;;;;;4863816;29;20057;-90
2023/10/28 03:41:32;;;;;;;3.70;1.10;;;11.70;75.00;;;;;;4879037;29;20072;-90
2023/10/28 03:43:59;;;;;;;5.53;1.40;;;11.60;75.30;;;;;;4879093;29;20478;-90
2023/10/28 03:46:26;;;;;;;3.50;1.08;;;11.70;75.40;;;;;;4863564;29;20485;-92
2023/10/28 03:48:54;;;;;;;3.42;1.27;;;11.70;75.00;;;;;;4845311;29;20118;-91
2023/10/28 03:51:21;;;;;;;3.13;1.17;;;11.50;75.30;;;;;;4860048;29;20144;-91
2023/10/28 03:53:48;;;;;;;5.80;1.10;;;11.60;75.40;;;;;;4829964;29;20082;-90
2023/10/28 03:56:16;;;;;;;4.88;1.35;;;11.50;75.40;;;;;;4830052;29;20149;-90
2023/10/28 03:58:43;;;;;;;2.67;1.00;;;11.50;75.30;;;;;;4844833;29;20089;-91
2023/10/28 04:01:11;;;;;;;3.85;1.30;;;11.50;75.40;;;;;;4829903;29;20523;-90
2023/10/28 04:03:39;;;;;;;2.75;1.05;;;11.40;75.50;;;;;;4844817;29;20053;-90
2023/10/28 04:06:06;;;;;;;3.03;1.27;;;11.50;75.40;;;;;;4829737;29;20077;-90
2023/10/28 04:08:33;;;;;;;3.97;1.25;;;11.50;75.40;;;;;;4844923;29;20048;-90
2023/10/28 04:11:03;;;;;;;3.15;1.15;;;11.50;75.20;;;;;;4832628;29;20154;-90
2023/10/28 04:13:30;;;;;;;2.88;0.90;;;11.50;75.20;;;;;;4863188;29;20049;-90
2023/10/28 04:15:58;;;;;;;3.03;0.95;;;11.50;75.20;;;;;;4872138;29;20092;-91
2023/10/28 04:18:25;;;;;;;2.23;1.10;;;11.50;75.20;;;;;;4884848;29;20055;-91
2023/10/28 04:20:52;;;;;;;4.03;1.55;;;11.50;74.80;;;;;;4884501;29;20044;-90
2023/10/28 04:23:21;;;;;;;3.53;1.38;;;11.50;75.10;;;;;;4884866;29;20384;-90
2023/10/28 04:25:48;;;;;;;3.20;0.95;;;11.40;75.10;;;;;;4884707;29;20139;-90
2023/10/28 04:28:16;;;;;;;3.30;0.90;;;11.50;75.10;;;;;;4884390;29;20100;-90
2023/10/28 04:30:43;;;;;;;3.50;1.13;;;11.40;75.00;;;;;;4884652;29;20512;-90
2023/10/28 04:33:10;;;;;;;4.65;1.40;;;11.40;75.10;;;;;;4884612;29;20392;-91
2023/10/28 04:35:37;;;;;;;3.22;1.15;;;11.50;75.10;;;;;;4884345;29;20053;-90
2023/10/28 04:38:04;;;;;;;2.20;1.10;;;11.40;75.00;;;;;;4884534;29;20087;-90
2023/10/28 04:40:33;;;;;;;4.38;1.20;;;11.40;75.20;;;;;;4884327;29;20056;-90
2023/10/28 04:43:02;;;;;;;4.07;1.20;;;11.30;75.40;;;;;;4867529;29;20143;-90
2023/10/28 04:45:34;;;;;;;3.50;0.90;;;11.30;75.30;;;;;;4865885;29;20495;-90
2023/10/28 04:48:01;;;;;;;3.38;1.00;;;11.40;75.30;;;;;;4865427;29;20135;-90
2023/10/28 04:50:30;;;;;;;2.20;0.77;;;11.40;75.00;;;;;;4865720;29;20056;-90
2023/10/28 04:52:57;;;;;;;3.45;0.88;;;11.30;75.00;;;;;;4865696;29;20045;-89
2023/10/28 04:55:25;;;;;;;4.20;0.90;;;11.30;75.00;;;;;;4865737;29;20052;-90
2023/10/28 04:57:52;;;;;;;4.72;1.10;;;11.30;74.80;;;;;;4865428;29;20404;-90
2023/10/28 05:00:20;;;;;;;2.60;1.33;;;11.20;75.00;;;;;;4865465;29;20063;-90
2023/10/28 05:02:47;;;;;;;3.20;1.10;;;11.20;75.10;;;;;;4864762;29;20070;-90
2023/10/28 05:05:14;;;;;;;2.50;1.00;;;11.30;75.10;;;;;;4850377;29;20132;-90
2023/10/28 05:07:42;;;;;;;3.17;1.13;;;11.20;75.00;;;;;;4873615;29;20139;-90
2023/10/28 05:10:10;;;;;;;3.90;1.13;;;11.20;74.80;;;;;;4868669;29;20044;-90
2023/10/28 05:12:40;;;;;;;6.18;1.67;;;11.20;74.80;;;;;;4868399;29;20049;-90
2023/10/28 05:15:08;;;;;;;4.90;1.30;;;11.20;74.70;;;;;;4868534;29;20052;-91
2023/10/28 05:17:36;;;;;;;5.47;1.42;;;11.20;74.50;;;;;;4868113;29;20140;-90
2023/10/28 05:20:07;;;;;;;5.30;1.13;;;11.10;74.90;;;;;;4868221;29;20049;-90
2023/10/28 05:22:47;;;;;;;5.60;1.05;;;11.00;75.30;;;;;;4868483;29;20448;-91
2023/10/28 05:25:14;;;;;;;5.57;1.13;;;11.00;75.60;;;;;;4868259;29;20086;-91
2023/10/28 05:27:42;;;;;;;3.97;1.00;;;11.00;75.70;;;;;;4864864;29;20041;-91
2023/10/28 05:30:11;;;;;;;5.38;0.90;;;10.90;75.60;;;;;;4849770;29;20457;-91
2023/10/28 05:32:39;;;;;;;3.47;1.00;;;10.90;75.60;;;;;;4865244;29;20091;-91
2023/10/28 05:35:11;;;;;;;2.88;1.17;;;10.90;75.80;;;;;;4849755;29;20104;-90
2023/10/28 05:37:38;;;;;;;2.97;0.98;;;10.80;75.90;;;;;;4864857;29;20440;-90
2023/10/28 05:40:15;;;;;;;3.00;0.73;;;10.90;75.80;;;;;;4849621;29;20049;-90
2023/10/28 05:42:43;;;;;;;2.80;0.90;;;10.90;75.60;;;;;;4865361;29;20512;-90
2023/10/28 05:45:10;;;;;;;2.60;0.70;;;11.00;75.30;;;;;;4849594;29;20045;-90
2023/10/28 05:47:37;;;;;;;4.45;1.00;;;10.90;75.20;;;;;;4864592;29;20045;-91
2023/10/28 05:50:05;;;;;;;3.00;1.00;;;10.90;75.20;;;;;;4864770;29;20069;-91
2023/10/28 05:52:34;;;;;;;5.40;0.90;;;10.80;75.10;;;;;;4849595;29;20144;-90
2023/10/28 05:55:05;;;;;;;2.10;0.80;;;10.90;75.20;;;;;;4849435;29;20408;-90
2023/10/28 05:57:32;;;;;;;3.13;0.90;;;10.90;75.10;;;;;;4849388;29;20049;-90
2023/10/28 05:59:59;;;;;;;4.35;0.90;;;10.90;75.10;;;;;;4849211;29;20105;-89
2023/10/28 06:02:32;;;;;;;4.57;0.90;;;10.90;74.90;;;;;;4865707;29;20049;-90
2023/10/28 06:05:00;;;;;;;4.43;0.93;;;10.90;75.10;;;;;;4864485;29;20048;-90
2023/10/28 06:07:27;;;;;;;2.92;0.90;;;10.80;75.10;;;;;;4849296;29;20411;-90
2023/10/28 06:09:54;;;;;;;3.13;0.80;;;10.90;75.10;;;;;;4864647;29;20049;-90
2023/10/28 06:12:21;;;;;;;5.30;1.00;;;10.90;75.00;;;;;;4849253;29;20042;-90
2023/10/28 06:14:48;;;;;;;4.10;1.00;;;10.90;75.00;;;;;;4855440;29;20075;-90
2023/10/28 06:17:15;;;;;;;4.07;0.88;;;11.00;74.80;;;;;;4855309;29;20530;-90
2023/10/28 06:19:43;;;;;;;3.50;1.10;;;11.00;74.90;;;;;;4870604;29;20053;-91
2023/10/28 06:22:11;;;;;;;3.37;0.83;;;11.00;74.50;;;;;;4855430;29;20069;-90
2023/10/28 06:24:39;;;;;;;5.70;1.08;;;11.00;74.30;;;;;;4855263;29;20097;-91
2023/10/28 06:27:08;;;;;;;6.07;1.10;;;11.10;73.80;;;;;;4883650;29;20455;-90
2023/10/28 06:29:35;;;;;;;7.22;0.85;;;11.10;73.90;;;;;;4904688;29;20052;-91
2023/10/28 06:32:03;;;;;;;3.75;0.90;;;11.20;74.10;;;;;;4889183;29;20096;-93
2023/10/28 06:34:31;;;;;;;2.93;0.90;;;11.30;74.00;;;;;;4873931;29;20056;-93
2023/10/28 06:37:00;;;;;;;4.00;1.05;;;11.40;73.90;;;;;;4904823;29;20143;-93
2023/10/28 06:39:28;;;;;;;2.75;0.90;;;11.40;73.50;;;;;;4889203;29;20080;-95
2023/10/28 06:41:55;;;;;;;3.72;1.02;;;11.40;73.90;;;;;;4904910;29;20143;-93
2023/10/28 06:44:23;;;;;;;3.17;0.95;;;11.40;73.70;;;;;;4904431;29;20095;-90
2023/10/28 06:46:50;;;;;;;1.90;0.63;;;11.40;73.80;;;;;;4904638;29;20072;-91
2023/10/28 06:49:18;;;;;;;2.60;0.70;;;11.50;73.40;;;;;;4904937;29;20044;-90
2023/10/28 06:51:45;;;;;;;5.97;1.25;;;11.50;73.60;;;;;;4904857;29;20120;-91
2023/10/28 06:54:12;;;;;;;6.03;0.90;;;11.60;73.60;;;;;;4905541;29;20056;-90
2023/10/28 06:56:40;;;;;;;3.00;0.90;;;11.70;73.30;;;;;;4905122;29;20056;-91
2023/10/28 06:59:07;;;;;;;2.17;0.90;;;11.80;73.00;;;;;;4905260;29;20060;-90
2023/10/28 07:01:34;;;;;;;3.00;1.10;;;11.80;72.70;;;;;;4904591;29;20052;-91
2023/10/28 07:04:01;;;;;;;4.10;1.23;;;11.90;73.20;;;;;;4904889;29;20044;-91
2023/10/28 07:06:31;;;;;;;3.53;1.00;;;12.00;73.30;;;;;;4904742;29;20056;-92
2023/10/28 07:08:58;;;;;;;5.70;1.13;;;12.00;72.90;;;;;;4904793;29;20139;-93
2023/10/28 07:11:25;;;;;;;3.10;0.90;;;12.00;73.00;;;;;;4904968;29;20116;-93
2023/10/28 07:13:52;;;;;;;4.40;1.27;;;12.00;72.40;;;;;;4904680;29;20083;-92
2023/10/28 07:16:20;;;;;;;4.25;1.27;;;12.00;72.50;;;;;;4888661;29;20416;-92
2023/10/28 07:18:48;;;;;;;3.65;1.02;;;12.10;72.40;;;;;;4904645;29;20083;-93
2023/10/28 07:21:15;;;;;;;3.97;1.40;;;12.20;72.50;;;;;;4889981;29;20075;-94
2023/10/28 07:27:47;;;;;;;3.95;1.30;;;12.30;72.00;;;;;;4904341;29;20048;-96
2023/10/28 07:30:17;;;;;;;7.28;1.40;;;12.40;72.20;;;;;;4901531;29;20049;-94
2023/10/28 07:32:44;;;;;;;3.03;1.02;;;12.50;72.30;;;;;;4901538;29;20140;-95
2023/10/28 07:35:11;;;;;;;5.20;0.90;;;12.50;72.20;;;;;;4885368;29;20044;-94
2023/10/28 07:37:39;;;;;;;3.07;0.97;;;12.50;71.80;;;;;;4901103;29;20052;-94
2023/10/28 07:40:07;;;;;;;2.03;0.80;;;12.50;71.50;;;;;;4885707;29;20049;-95
2023/10/28 07:42:34;;;;;;;5.45;1.10;;;12.60;70.80;;;;;;4901146;29;20065;-94
2023/10/28 07:45:02;;;;;;;3.30;1.00;;;12.60;70.90;;;;;;4900864;29;20052;-95
2023/10/28 07:47:31;;;;;;;3.65;1.40;;;12.70;71.10;;;;;;4885836;29;20571;-95
2023/10/28 07:49:58;;;;;;;3.90;1.13;;;12.80;70.80;;;;;;4900878;29;20048;-91
2023/10/28 07:52:26;;;;;;;4.70;1.27;;;12.80;70.60;;;;;;4900615;29;20104;-92
2023/10/28 07:54:53;;;;;;;3.75;1.25;;;12.90;70.60;;;;;;4900597;29;20049;-90
2023/10/28 07:57:22;;;;;;;5.53;1.20;;;13.00;70.50;;;;;;4901060;29;20096;-90
2023/10/28 07:59:49;;;;;;;2.53;0.80;;;13.00;70.40;;;;;;4900486;29;20396;-90
2023/10/28 08:02:17;;;;;;;1.90;0.70;;;13.00;70.50;;;;;;4900651;29;20049;-91
2023/10/28 08:04:44;;;;;;;2.42;0.93;;;13.10;69.90;;;;;;4884990;29;20049;-91
2023/10/28 08:07:11;;;;;;;4.70;1.00;;;13.20;69.90;;;;;;4886381;29;20045;-90
2023/10/28 08:09:39;;;;;;;3.40;0.75;;;13.30;70.00;;;;;;4901203;29;20139;-92
2023/10/28 08:12:06;;;;;;;4.57;1.00;;;13.30;69.20;;;;;;4886608;29;20506;-91
2023/10/28 08:14:34;;;;;;;6.67;1.00;;;13.20;68.60;;;;;;4901412;29;20388;-91
2023/10/28 08:17:02;;;;;;;6.47;1.30;;;13.20;69.20;;;;;;4901259;29;20080;-91
2023/10/28 08:19:30;;;;;;;3.58;0.90;;;13.30;69.20;;;;;;4900972;29;20401;-93
2023/10/28 08:21:59;;;;;;;5.07;0.90;;;13.40;69.60;;;;;;4900368;29;20053;-91
2023/10/28 08:24:27;;;;;;;3.70;0.98;;;13.40;69.30;;;;;;4885398;29;20372;-92
2023/10/28 08:26:56;;;;;;;4.10;0.80;;;13.50;69.50;;;;;;4901877;29;20052;-92
2023/10/28 08:29:24;;;;;;;3.03;0.80;;;13.50;69.40;;;;;;4884978;29;20052;-93
2023/10/28 08:31:51;;;;;;;3.00;0.80;;;13.50;69.30;;;;;;4870631;29;20139;-93
2023/10/28 08:34:19;;;;;;;3.90;0.90;;;13.60;68.70;;;;;;4902906;29;20130;-95
2023/10/28 08:36:46;;;;;;;5.07;0.80;;;13.60;68.80;;;;;;4886202;29;20147;-93
2023/10/28 08:39:14;;;;;;;2.57;0.90;;;13.70;68.80;;;;;;4904166;29;20527;-92
2023/10/28 08:41:42;;;;;;;2.22;0.80;;;13.70;69.00;;;;;;4894435;29;20075;-93
2023/10/28 08:44:12;;;;;;;5.50;1.00;;;13.70;68.60;;;;;;4891552;29;20064;-94
2023/10/28 08:46:42;;;;;;;2.22;0.88;;;13.60;68.60;;;;;;4884725;29;20441;-92
2023/10/28 08:49:14;;;;;;;4.13;1.05;;;13.60;68.60;;;;;;4868766;29;20143;-92
2023/10/28 08:51:47;;;;;;;3.97;0.80;;;13.60;68.80;;;;;;4884051;29;20161;-90
2023/10/28 08:54:16;;;;;;;3.08;0.75;;;13.60;68.60;;;;;;4868720;29;20048;-91
2023/10/28 08:56:46;;;;;;;4.38;0.95;;;13.60;68.60;;;;;;4899019;29;20419;-91
2023/10/28 08:59:14;;;;;;;2.63;0.90;;;13.70;68.50;;;;;;4870259;29;20483;-89
2023/10/28 09:01:41;;;;;;;3.22;1.00;;;13.80;68.70;;;;;;4899871;29;20048;-87
2023/10/28 09:04:08;;;;;;;6.33;2.70;;;13.80;68.80;;;;;;4899053;29;20052;-88
2023/10/28 09:06:35;;;;;;;4.55;1.40;;;13.80;68.70;;;;;;4899447;29;20044;-87
2023/10/28 09:09:07;;;;;;;4.07;1.25;;;13.80;68.30;;;;;;4892275;29;20071;-86
2023/10/28 09:11:34;;;;;;;4.00;1.00;;;13.90;69.10;;;;;;4870002;29;20049;-86
2023/10/28 09:14:07;;;;;;;2.75;1.00;;;13.80;68.70;;;;;;4881086;29;20048;-87
2023/10/28 09:16:40;;;;;;;5.90;1.30;;;13.80;68.00;;;;;;4866773;29;20053;-87
2023/10/28 09:19:20;;;;;;;3.55;1.33;;;13.80;68.20;;;;;;4867409;29;20049;-88
2023/10/28 09:21:55;;;;;;;5.90;1.95;;;13.90;69.00;;;;;;4878562;29;20096;-87
2023/10/28 09:24:38;;;;;;;7.13;1.75;;;13.80;68.90;;;;;;4865863;29;20404;-87
2023/10/28 09:27:05;;;;;;;7.43;1.90;;;13.80;69.70;;;;;;4883717;29;20495;-87
2023/10/28 09:29:33;;;;;;;7.50;2.80;;;13.80;69.10;;;;;;4882914;29;20088;-86
2023/10/28 09:32:08;;;;;;;6.97;3.05;;;13.80;69.50;;;;;;4861780;29;20045;-87
2023/10/28 09:34:38;;;;;;;4.25;1.35;;;13.80;69.70;;;;;;4898388;29;20053;-87
2023/10/28 09:37:06;;;;;;;2.78;1.40;;;13.80;69.70;;;;;;4864846;29;20048;-87
2023/10/28 09:39:37;;;;;;;5.53;2.17;;;13.80;70.10;;;;;;4864459;29;20049;-87
2023/10/28 09:42:05;;;;;;;4.87;1.03;;;13.70;70.10;;;;;;4881384;29;20395;-88
2023/10/28 09:44:34;;;;;;;4.00;1.23;;;13.70;68.90;;;;;;4898996;29;20122;-87
2023/10/28 09:47:07;;;;;;;4.25;1.30;;;13.50;69.20;;;;;;4882705;29;20048;-87
2023/10/28 09:49:41;;;;;;;3.88;1.50;;;13.60;69.70;;;;;;4874194;29;20114;-88
2023/10/28 09:52:12;;;;;;;11.90;5.25;;;13.60;69.30;;;;;;4878116;29;20459;-88
2023/10/28 09:54:42;;;;;;;5.93;2.27;;;13.60;69.80;;;;;;4867932;29;20045;-89
2023/10/28 09:57:10;;;;;;;4.82;1.20;;;13.50;69.90;;;;;;4866381;29;20504;-89
2023/10/28 09:59:44;;;;;;;3.42;1.10;;;13.50;69.70;;;;;;4898498;29;20048;-89
2023/10/28 10:02:17;;;;;;;6.32;1.10;;;13.30;70.00;;;;;;4867970;29;20061;-90
2023/10/28 10:04:55;;;;;;;5.07;1.13;;;13.30;70.00;;;;;;4883423;29;20147;-89
2023/10/28 10:07:22;;;;;;;4.53;1.57;;;13.30;70.30;;;;;;4867629;29;20044;-90
2023/10/28 10:09:49;;;;;;;8.95;2.40;;;13.20;71.20;;;;;;4898271;29;20104;-89
2023/10/28 10:12:17;;;;;;;6.30;1.85;;;13.20;71.30;;;;;;4876710;29;20041;-89
2023/10/28 10:14:45;;;;;;;4.43;1.38;;;13.30;71.40;;;;;;4870834;29;20040;-89
2023/10/28 10:17:36;;;;;;;4.03;1.42;;;13.30;71.00;;;;;;4876836;29;20116;-89
2023/10/28 10:20:06;;;;;;;8.23;2.17;;;13.40;71.50;;;;;;4879602;29;20052;-88
2023/10/28 10:22:35;;;;;;;3.85;1.17;;;13.50;71.10;;;;;;4897987;29;20044;-88
2023/10/28 10:25:02;;;;;;;3.50;1.10;;;13.50;70.20;;;;;;4897151;29;20049;-87
2023/10/28 10:27:34;;;;;;;4.43;1.42;;;13.70;70.90;;;;;;4881734;29;20060;-87
2023/10/28 10:30:11;;;;;;;3.08;1.10;;;13.80;70.00;;;;;;4867536;29;20104;-86
2023/10/28 10:32:46;;;;;;;4.90;2.00;;;13.90;70.30;;;;;;4894127;29;20045;-87
2023/10/28 10:35:28;;;;;;;6.82;2.25;;;14.00;70.30;;;;;;4880516;29;20303;-88
2023/10/28 10:38:11;;;;;;;3.47;1.20;;;14.10;69.20;;;;;;4866692;29;20053;-88
2023/10/28 10:40:47;;;;;;;5.47;1.33;;;14.10;68.50;;;;;;4882643;29;20056;-90
2023/10/28 10:43:19;;;;;;;5.88;2.08;;;14.20;69.20;;;;;;4890416;29;20043;-88
2023/10/28 10:45:48;;;;;;;2.40;0.80;;;14.20;67.70;;;;;;4898332;29;20116;-89
2023/10/28 10:48:16;;;;;;;3.47;1.13;;;14.30;67.40;;;;;;4867501;29;20077;-89
2023/10/28 10:50:45;;;;;;;4.03;1.58;;;14.30;67.90;;;;;;4882771;29;20307;-90
2023/10/28 10:53:13;;;;;;;4.00;1.65;;;14.20;68.00;;;;;;4882700;29;20045;-88
2023/10/28 10:55:42;;;;;;;6.35;2.45;;;14.10;67.00;;;;;;4898645;29;20081;-89
2023/10/28 10:58:09;;;;;;;4.30;1.40;;;14.10;66.80;;;;;;4898221;29;20067;-90
2023/10/28 11:00:37;;;;;;;4.25;1.55;;;14.00;66.50;;;;;;4899743;29;20495;-90
2023/10/28 11:03:07;;;;;;;4.22;1.60;;;13.80;66.80;;;;;;4886550;29;20435;-89
2023/10/28 11:05:36;;;;;;;5.43;1.70;;;13.70;67.00;;;;;;4871724;29;20056;-90
2023/10/28 11:08:04;;;;;;;6.43;1.98;;;13.60;67.50;;;;;;4868978;29;20048;-90
2023/10/28 11:10:31;;;;;;;10.50;2.77;;;13.60;68.10;;;;;;4885920;29;20072;-89
2023/10/28 11:12:58;;;;;;;5.07;1.20;;;13.60;68.00;;;;;;4901617;29;20483;-88
2023/10/28 11:15:25;;;;;;;3.85;1.50;;;13.60;68.10;;;;;;4885855;29;20045;-89
2023/10/28 11:17:52;;;;;;;3.33;1.02;;;13.70;68.50;;;;;;4867588;29;20049;-89
2023/10/28 11:20:20;;;;;;;4.25;1.48;;;13.80;69.50;;;;;;4878007;29;20050;-88
2023/10/28 11:22:48;;;;;;;5.17;1.70;;;13.80;68.80;;;;;;4864585;29;20473;-89
2023/10/28 11:25:15;;;;;;;2.93;1.10;;;13.90;68.90;;;;;;4848255;29;20046;-87
2023/10/28 11:27:42;;;;;;;4.53;1.58;;;14.00;68.80;;;;;;4863975;29;20132;-93
2023/10/28 11:30:10;;;;;;;7.05;1.70;;;14.10;69.00;;;;;;4879218;29;20063;-90
2023/10/28 11:32:40;;;;;;;5.13;1.50;;;14.10;69.30;;;;;;4864683;29;20037;-90
2023/10/28 11:35:14;;;;;;;3.47;1.00;;;14.20;68.90;;;;;;4863638;29;20045;-90
2023/10/28 11:37:41;;;;;;;2.10;0.82;;;14.20;68.00;;;;;;4846223;29;20053;-89
2023/10/28 11:40:10;;;;;;;3.20;1.17;;;14.10;68.00;;;;;;4857267;29;20064;-90
2023/10/28 11:42:37;;;;;;;4.03;1.42;;;14.10;68.00;;;;;;4844320;29;20071;-92
2023/10/28 11:45:09;;;;;;;2.78;1.08;;;14.10;67.30;;;;;;4863477;29;20519;-91
2023/10/28 11:47:37;;;;;;;4.43;1.70;;;14.10;67.50;;;;;;4840921;29;20053;-92
2023/10/28 11:50:05;;;;;;;3.72;1.15;;;14.10;67.30;;;;;;4832820;29;20528;-95
2023/10/28 11:52:35;;;;;;;2.90;0.95;;;14.10;67.80;;;;;;4848550;29;20049;-91
2023/10/28 11:55:06;;;;;;;3.08;1.20;;;14.00;66.70;;;;;;4847862;29;20042;-91
2023/10/28 11:57:33;;;;;;;3.30;1.30;;;14.00;67.50;;;;;;4858773;29;20076;-91
2023/10/28 12:00:01;;;;;;;3.23;1.40;;;14.00;67.70;;;;;;4845589;29;20177;-90
2023/10/28 12:02:31;;;;;;;4.47;1.20;;;14.00;66.80;;;;;;4854223;29;20476;-91
2023/10/28 12:04:58;;;;;;;4.43;1.20;;;13.90;66.70;;;;;;4854301;29;20488;-91
2023/10/28 12:07:25;;;;;;;4.43;1.33;;;13.70;66.70;;;;;;4844381;29;20102;-90
2023/10/28 12:09:52;;;;;;;2.20;1.02;;;13.70;66.90;;;;;;4859467;29;20496;-92
2023/10/28 12:12:19;;;;;;;4.30;1.30;;;13.70;67.10;;;;;;4862798;29;20129;-92
2023/10/28 12:14:46;;;;;;;3.15;1.10;;;13.80;67.10;;;;;;4874734;29;20427;-91
2023/10/28 12:17:13;;;;;;;4.63;1.75;;;13.80;67.10;;;;;;4867412;29;20054;-92
2023/10/28 12:19:40;;;;;;;3.40;1.33;;;13.80;66.90;;;;;;4858965;29;20060;-92
2023/10/28 12:22:08;;;;;;;5.55;1.80;;;13.80;67.10;;;;;;4865969;29;20080;-90
2023/10/28 12:24:35;;;;;;;3.87;1.40;;;13.90;66.70;;;;;;4850503;29;20053;-91
2023/10/28 12:27:03;;;;;;;5.00;1.48;;;14.00;66.60;;;;;;4879639;29;20109;-92
2023/10/28 12:29:30;;;;;;;4.35;1.80;;;14.00;66.20;;;;;;4865653;29;20049;-90
2023/10/28 12:31:57;;;;;;;4.20;1.70;;;14.00;66.80;;;;;;4863997;29;20502;-90
2023/10/28 12:34:24;;;;;;;4.95;1.70;;;14.20;66.50;;;;;;4880421;29;20041;-91
2023/10/28 12:36:51;;;;;;;2.30;0.93;;;14.40;66.30;;;;;;4862945;29;20068;-90
2023/10/28 12:39:20;;;;;;;4.60;1.05;;;14.50;65.30;;;;;;4865538;29;20503;-90
2023/10/28 12:41:47;;;;;;;4.72;1.35;;;14.50;65.20;;;;;;4862899;29;20057;-91
2023/10/28 12:44:14;;;;;;;2.95;1.25;;;14.60;64.60;;;;;;4862541;29;20234;-91
2023/10/28 12:46:41;;;;;;;4.53;1.40;;;14.60;64.60;;;;;;4864954;29;20139;-90
2023/10/28 12:49:09;;;;;;;4.17;1.17;;;14.60;63.70;;;;;;4849720;29;20049;-90
2023/10/28 12:51:36;;;;;;;3.78;1.20;;;14.50;63.70;;;;;;4881876;29;20128;-91
2023/10/28 12:54:07;;;;;;;4.15;1.15;;;14.40;64.60;;;;;;4864626;29;20407;-91
2023/10/28 12:56:34;;;;;;;3.88;1.13;;;14.50;64.80;;;;;;4885875;29;20109;-90
2023/10/28 12:59:02;;;;;;;3.85;1.48;;;14.30;64.20;;;;;;4865280;29;20049;-90